Aspen, Colorado
Current Conditions -  °F | °C
As of 2:53 AM on Tuesday 21 Oct 2014 (Local Time) from KASE Reporting Station
Overcast Overcast  
Wind Chill: 38°   Ceiling: 10000
Heat Index: 41°   Visibility: 10mi
Dew Point: 33°   Wind: 5mph
Humidity: 73%   Direction: 200°SSW
Pressure: 30.2"   Gusts: NA
Location:  39.19°N, 106.81°W
Report Text: KASE 210853Z AUTO 20004KT 10SM OVC100 05/01 A3020 RMK AO2 SLP133 T00500006 58002
Loading
Personal Weather Stations






























Interactive Weather Map New forecast layout! Learn more

10-Day Weather Forecast

Advertisements
Track Severe Weather on mobile